Time;durP1;ratioP1;P1;durP2;ratioP2;P2;SDS_P1;SDS_P2;PMS_P1;PMS_P2;Temp;Humidity;BMP_temperature;BMP_pressure;BME280_temperature;BME280_humidity;BME280_pressure;Samples;Min_cycle;Max_cycle;Signal;HPM_P1;HPM_P2
2023/05/15 00:00:10;;;;;;;4.57;1.92;;;13.30;99.90;;;;;;4972187;28;20031;-73
2023/05/15 00:02:37;;;;;;;7.10;2.22;;;13.40;99.90;;;;;;4960295;28;20051;-73
2023/05/15 00:05:07;;;;;;;4.13;1.58;;;13.40;99.90;;;;;;4956589;28;20034;-73
2023/05/15 00:07:34;;;;;;;4.95;1.60;;;13.50;99.90;;;;;;4963545;28;20554;-72
2023/05/15 00:10:00;;;;;;;3.17;1.83;;;13.60;99.90;;;;;;4970859;28;20046;-74
2023/05/15 00:12:26;;;;;;;2.88;1.48;;;13.50;99.90;;;;;;4964517;28;20027;-74
2023/05/15 00:14:52;;;;;;;3.08;1.77;;;13.60;99.90;;;;;;4970320;28;20058;-73
2023/05/15 00:17:18;;;;;;;2.83;1.50;;;13.50;99.90;;;;;;4963067;28;20069;-73
2023/05/15 00:19:44;;;;;;;2.50;1.38;;;13.50;99.90;;;;;;4971738;28;20027;-73
2023/05/15 00:22:10;;;;;;;3.65;1.50;;;13.50;99.90;;;;;;4964520;28;20077;-74
2023/05/15 00:24:36;;;;;;;3.53;1.77;;;13.50;99.90;;;;;;4971256;28;20112;-73
2023/05/15 00:27:02;;;;;;;3.10;1.85;;;13.50;99.90;;;;;;4967457;28;20039;-73
2023/05/15 00:29:27;;;;;;;7.95;2.63;;;13.40;99.90;;;;;;4952456;28;20436;-73
2023/05/15 00:31:53;;;;;;;3.58;1.80;;;13.30;99.90;;;;;;4964743;28;20489;-73
2023/05/15 00:34:20;;;;;;;3.45;1.50;;;13.20;99.90;;;;;;4970215;28;20413;-72
2023/05/15 00:36:47;;;;;;;4.80;1.73;;;13.30;99.90;;;;;;4966768;28;20065;-73
2023/05/15 00:39:12;;;;;;;3.47;1.85;;;13.40;99.90;;;;;;4968898;28;20665;-74
2023/05/15 00:41:40;;;;;;;4.32;1.55;;;13.30;99.90;;;;;;4968071;28;20039;-74
2023/05/15 00:44:07;;;;;;;6.25;2.35;;;13.30;99.90;;;;;;4967391;28;20061;-74
2023/05/15 00:46:36;;;;;;;3.20;1.67;;;13.30;99.90;;;;;;4966709;28;20027;-74
2023/05/15 00:49:05;;;;;;;3.55;1.77;;;13.40;99.90;;;;;;4955950;28;20510;-74
2023/05/15 00:51:31;;;;;;;2.83;1.83;;;13.30;99.90;;;;;;4961737;28;20406;-73
2023/05/15 00:53:58;;;;;;;4.15;1.98;;;13.30;99.90;;;;;;4956540;28;20093;-73
2023/05/15 00:56:24;;;;;;;3.95;2.05;;;13.20;99.90;;;;;;4960115;28;20126;-73
2023/05/15 00:58:51;;;;;;;6.72;1.83;;;13.20;99.90;;;;;;4957284;28;20137;-73
2023/05/15 01:01:17;;;;;;;2.67;1.77;;;13.20;99.90;;;;;;4957585;28;20062;-73
2023/05/15 01:03:43;;;;;;;3.85;1.92;;;13.20;99.90;;;;;;4958063;28;20035;-72
2023/05/15 01:06:10;;;;;;;3.42;2.10;;;13.20;99.90;;;;;;4958194;28;20424;-72
2023/05/15 01:08:58;;;;;;;2.83;1.70;;;13.20;99.90;;;;;;4961460;28;20028;-73
2023/05/15 01:11:34;;;;;;;2.40;1.52;;;12.90;99.90;;;;;;4956527;28;20032;-74
2023/05/15 01:14:06;;;;;;;4.03;2.25;;;12.70;99.90;;;;;;4955948;28;20059;-74
2023/05/15 01:16:33;;;;;;;3.38;1.75;;;12.60;99.90;;;;;;4965652;28;20042;-74
2023/05/15 01:18:59;;;;;;;3.78;1.58;;;12.60;99.90;;;;;;4966093;28;20066;-75
2023/05/15 01:21:34;;;;;;;3.22;1.60;;;12.70;99.90;;;;;;4968437;28;20074;-74
2023/05/15 01:24:54;;;;;;;2.25;1.70;;;12.60;99.90;;;;;;4957636;28;20118;-74
2023/05/15 01:27:51;;;;;;;3.05;1.60;;;12.60;99.90;;;;;;4959665;28;20222;-74
2023/05/15 01:30:29;;;;;;;2.80;1.70;;;12.70;99.90;;;;;;4973549;28;20027;-74
2023/05/15 01:33:11;;;;;;;3.28;1.85;;;12.50;99.90;;;;;;4965236;28;20030;-73
2023/05/15 01:35:47;;;;;;;4.05;1.90;;;12.50;99.90;;;;;;4973626;28;20061;-73
2023/05/15 01:38:33;;;;;;;2.92;1.65;;;12.50;99.90;;;;;;4964999;28;20031;-73
2023/05/15 01:41:09;;;;;;;7.07;2.33;;;12.20;99.90;;;;;;4970514;28;20046;-74
2023/05/15 01:43:41;;;;;;;2.80;1.67;;;12.20;99.90;;;;;;4964707;28;20118;-74
2023/05/15 01:46:08;;;;;;;3.45;2.35;;;12.00;99.90;;;;;;4965522;28;20039;-74
2023/05/15 01:48:35;;;;;;;3.63;1.90;;;12.10;99.90;;;;;;4977385;28;20070;-73
2023/05/15 01:51:05;;;;;;;7.32;2.28;;;12.00;99.90;;;;;;4960255;28;20034;-74
2023/05/15 01:53:32;;;;;;;3.83;1.95;;;12.10;99.90;;;;;;4964886;28;20046;-74
2023/05/15 01:55:59;;;;;;;3.17;1.60;;;11.90;99.90;;;;;;4965486;28;20116;-74
2023/05/15 01:58:25;;;;;;;4.53;2.53;;;11.80;99.90;;;;;;4977334;28;20046;-74
2023/05/15 02:00:52;;;;;;;4.88;2.20;;;11.80;99.90;;;;;;4958573;28;20151;-74
2023/05/15 02:03:19;;;;;;;3.25;1.90;;;11.70;99.90;;;;;;4964487;28;20082;-74
2023/05/15 02:05:47;;;;;;;4.40;1.88;;;11.70;99.90;;;;;;4949283;29;20031;-74
2023/05/15 02:08:14;;;;;;;4.38;1.90;;;11.70;99.90;;;;;;4977106;28;20032;-74
2023/05/15 02:10:40;;;;;;;3.03;1.65;;;11.80;99.90;;;;;;4957317;28;20093;-74
2023/05/15 02:13:08;;;;;;;5.25;2.53;;;11.90;99.90;;;;;;4964487;28;20069;-73
2023/05/15 02:15:34;;;;;;;4.95;1.98;;;12.00;99.90;;;;;;4931572;28;1088945;-73
2023/05/15 02:18:00;;;;;;;4.40;1.98;;;12.00;99.90;;;;;;4965152;28;20058;-73
2023/05/15 02:20:26;;;;;;;3.63;2.00;;;12.00;99.90;;;;;;4969063;28;20069;-73
2023/05/15 02:22:52;;;;;;;4.28;2.40;;;12.00;99.90;;;;;;4965419;28;20547;-74
2023/05/15 02:25:24;;;;;;;4.20;2.30;;;12.00;99.90;;;;;;4972836;28;20390;-73
2023/05/15 02:27:56;;;;;;;3.13;1.65;;;11.90;99.90;;;;;;4965464;28;20085;-73
2023/05/15 02:30:28;;;;;;;2.60;1.80;;;11.90;99.90;;;;;;4969546;28;20038;-73
2023/05/15 02:33:15;;;;;;;3.45;1.90;;;12.00;99.90;;;;;;4966244;28;20042;-73
2023/05/15 02:35:51;;;;;;;2.83;1.70;;;12.00;99.90;;;;;;4974001;28;20120;-73
2023/05/15 02:38:46;;;;;;;4.68;1.77;;;12.00;99.90;;;;;;4965352;28;20031;-72
2023/05/15 02:41:13;;;;;;;4.68;2.08;;;12.00;99.90;;;;;;4968941;28;20150;-72
2023/05/15 02:43:40;;;;;;;4.65;2.30;;;12.00;99.90;;;;;;4949721;28;20022;-72
2023/05/15 02:46:07;;;;;;;4.28;1.98;;;12.10;99.90;;;;;;4965888;28;20041;-72
2023/05/15 02:48:40;;;;;;;4.30;2.10;;;12.10;99.90;;;;;;4977942;28;20454;-72
2023/05/15 02:51:07;;;;;;;3.58;2.00;;;12.10;99.90;;;;;;4961560;28;20482;-72
2023/05/15 02:53:38;;;;;;;4.68;2.00;;;12.10;99.90;;;;;;4965064;28;20030;-73
2023/05/15 02:56:04;;;;;;;;;;;12.10;99.90;;;;;;4965382;28;20047;-72
2023/05/15 02:58:29;;;;;;;4.28;2.38;;;12.20;99.90;;;;;;4962743;28;20286;-74
2023/05/15 03:00:55;;;;;;;3.25;2.05;;;12.20;99.90;;;;;;4979196;28;20121;-73
2023/05/15 03:03:21;;;;;;;7.07;2.20;;;12.20;99.90;;;;;;4965893;28;20110;-72
2023/05/15 03:05:47;;;;;;;3.38;1.98;;;12.20;99.90;;;;;;4973446;28;20089;-73
2023/05/15 03:08:13;;;;;;;3.58;2.05;;;12.20;99.90;;;;;;4965710;28;20445;-74
2023/05/15 03:10:39;;;;;;;6.28;2.33;;;12.20;99.90;;;;;;4973329;28;20034;-73
2023/05/15 03:13:05;;;;;;;4.55;2.15;;;12.00;99.90;;;;;;4964899;28;20096;-73
2023/05/15 03:15:30;;;;;;;3.47;2.13;;;11.90;99.90;;;;;;4983030;28;20510;-74
2023/05/15 03:17:56;;;;;;;3.10;2.00;;;11.90;99.90;;;;;;4986184;23;20054;-72
2023/05/15 03:20:22;;;;;;;4.82;2.80;;;12.00;99.90;;;;;;4972029;28;20376;-74
2023/05/15 03:22:48;;;;;;;16.02;2.53;;;12.00;99.90;;;;;;4972669;28;20031;-73
2023/05/15 03:25:14;;;;;;;5.57;2.13;;;11.90;99.90;;;;;;4965306;28;20031;-74
2023/05/15 03:27:40;;;;;;;13.15;2.35;;;11.70;99.90;;;;;;4973026;28;20041;-74
2023/05/15 03:30:06;;;;;;;3.53;1.67;;;11.80;99.90;;;;;;4965392;28;20030;-73
2023/05/15 03:32:32;;;;;;;2.80;1.90;;;11.80;99.90;;;;;;4972922;28;20031;-74
2023/05/15 03:34:58;;;;;;;3.28;1.73;;;11.80;99.90;;;;;;4965123;28;20037;-74
2023/05/15 03:37:23;;;;;;;6.35;2.42;;;11.80;99.90;;;;;;4973022;28;20042;-73
2023/05/15 03:39:49;;;;;;;5.80;2.22;;;11.80;99.90;;;;;;4964582;28;20483;-72
2023/05/15 03:42:21;;;;;;;5.85;2.47;;;11.80;99.90;;;;;;4972983;28;20031;-72
2023/05/15 03:44:47;;;;;;;7.22;3.33;;;11.80;99.90;;;;;;4963841;28;20066;-72
2023/05/15 03:47:12;;;;;;;4.20;2.65;;;11.70;99.90;;;;;;4972593;28;20816;-73
2023/05/15 03:49:38;;;;;;;4.00;2.22;;;11.60;99.90;;;;;;4964360;28;20039;-73
2023/05/15 03:52:05;;;;;;;7.10;2.38;;;11.60;99.90;;;;;;4972704;28;20033;-73
2023/05/15 03:54:30;;;;;;;7.53;2.15;;;11.60;99.90;;;;;;4968792;28;20054;-72
2023/05/15 03:56:56;;;;;;;4.90;1.95;;;11.30;99.90;;;;;;4956777;28;20034;-73
2023/05/15 03:59:22;;;;;;;4.70;2.28;;;11.30;99.90;;;;;;4979556;28;20050;-73
2023/05/15 04:01:48;;;;;;;3.20;1.88;;;11.40;99.90;;;;;;4972167;28;20043;-73
2023/05/15 04:04:13;;;;;;;11.82;2.63;;;11.40;99.90;;;;;;4964249;28;20418;-73
2023/05/15 04:06:39;;;;;;;9.13;2.65;;;11.40;99.90;;;;;;4972390;28;20035;-73
2023/05/15 04:09:05;;;;;;;5.13;2.25;;;11.40;99.90;;;;;;4965356;28;20043;-73
2023/05/15 04:11:30;;;;;;;5.85;2.60;;;11.40;99.90;;;;;;4971644;28;20038;-73
2023/05/15 04:13:56;;;;;;;4.78;2.72;;;11.30;99.90;;;;;;4966274;28;20542;-74
2023/05/15 04:16:22;;;;;;;3.53;1.95;;;11.20;99.90;;;;;;4971426;28;20042;-73
2023/05/15 04:18:47;;;;;;;9.10;2.40;;;11.20;99.90;;;;;;4966739;28;20046;-72
2023/05/15 04:21:13;;;;;;;4.43;2.25;;;11.20;99.90;;;;;;4969636;28;20063;-72
2023/05/15 04:23:40;;;;;;;6.63;2.70;;;11.20;99.90;;;;;;4967928;28;20062;-72
2023/05/15 04:26:07;;;;;;;4.97;2.10;;;11.20;99.90;;;;;;4967702;28;20030;-74
2023/05/15 04:28:33;;;;;;;3.53;2.20;;;11.10;99.90;;;;;;4965276;28;20026;-73
2023/05/15 04:30:58;;;;;;;4.45;2.13;;;11.00;99.90;;;;;;4957673;28;20376;-74
2023/05/15 04:33:24;;;;;;;10.30;3.53;;;11.00;99.90;;;;;;4965298;28;20041;-77
2023/05/15 04:35:51;;;;;;;13.35;7.00;;;11.00;99.90;;;;;;4973223;28;20034;-77
2023/05/15 04:38:17;;;;;;;5.15;2.72;;;11.20;99.90;;;;;;4966441;28;20590;-73
2023/05/15 04:40:44;;;;;;;9.63;3.80;;;11.20;99.90;;;;;;4971773;28;20499;-77
2023/05/15 04:43:10;;;;;;;23.25;8.10;;;11.40;99.90;;;;;;4970213;28;20026;-77
2023/05/15 04:45:36;;;;;;;6.78;3.15;;;11.50;99.90;;;;;;4972112;28;20033;-76
2023/05/15 04:48:02;;;;;;;5.90;3.20;;;11.50;99.90;;;;;;4970516;28;20511;-76
2023/05/15 04:50:28;;;;;;;8.25;3.33;;;11.50;99.90;;;;;;4962308;28;20521;-76
2023/05/15 04:52:54;;;;;;;6.82;2.72;;;11.40;99.90;;;;;;4971764;28;20038;-76
2023/05/15 04:55:20;;;;;;;5.03;2.60;;;11.50;99.90;;;;;;4963796;28;20058;-75
2023/05/15 04:57:46;;;;;;;5.35;2.58;;;11.60;99.90;;;;;;4961320;28;20534;-77
2023/05/15 05:00:13;;;;;;;7.97;3.35;;;11.70;99.90;;;;;;4959711;28;20099;-76
2023/05/15 05:02:40;;;;;;;8.07;3.35;;;11.70;99.90;;;;;;4960471;28;20541;-75
2023/05/15 05:05:07;;;;;;;4.40;2.50;;;11.70;99.90;;;;;;4960063;28;20046;-75
2023/05/15 05:07:33;;;;;;;5.13;2.80;;;11.50;99.90;;;;;;4970745;28;20037;-74
2023/05/15 05:10:01;;;;;;;8.63;2.92;;;11.50;99.90;;;;;;4961304;28;20027;-74
2023/05/15 05:12:27;;;;;;;9.13;3.75;;;11.70;99.90;;;;;;4970584;28;20490;-76
2023/05/15 05:14:54;;;;;;;7.07;4.25;;;11.80;99.90;;;;;;4940139;28;20075;-77
2023/05/15 05:17:20;;;;;;;5.60;2.78;;;11.70;99.90;;;;;;4971716;28;20109;-78
2023/05/15 05:19:45;;;;;;;6.47;2.60;;;11.80;99.90;;;;;;4963039;28;20027;-76
2023/05/15 05:22:11;;;;;;;3.30;2.08;;;11.90;99.90;;;;;;4970943;28;20161;-75
2023/05/15 05:24:37;;;;;;;5.43;2.28;;;12.10;99.90;;;;;;4963709;28;20030;-77
2023/05/15 05:27:03;;;;;;;6.32;2.58;;;12.10;99.90;;;;;;4967059;28;20034;-75
2023/05/15 05:29:30;;;;;;;3.67;1.75;;;12.20;99.90;;;;;;4967806;28;20019;-76
2023/05/15 05:31:56;;;;;;;3.83;2.60;;;12.20;99.90;;;;;;4964638;28;20512;-75
2023/05/15 05:34:22;;;;;;;5.38;2.65;;;12.20;99.90;;;;;;4971839;28;20450;-77
2023/05/15 05:36:48;;;;;;;4.25;2.40;;;12.10;99.90;;;;;;4952761;28;20039;-76
2023/05/15 05:39:18;;;;;;;5.07;2.28;;;12.10;99.90;;;;;;4964267;28;20522;-76
2023/05/15 05:41:44;;;;;;;3.88;2.60;;;12.30;99.90;;;;;;4972633;28;20035;-73
2023/05/15 05:44:10;;;;;;;4.50;2.15;;;12.30;99.90;;;;;;4979774;28;20031;-75
2023/05/15 05:46:35;;;;;;;4.25;2.38;;;12.20;99.90;;;;;;4954327;28;20352;-75
2023/05/15 05:49:01;;;;;;;4.10;1.90;;;12.10;99.90;;;;;;4963166;28;20082;-74
2023/05/15 05:51:27;;;;;;;4.03;2.20;;;12.20;99.90;;;;;;4985324;28;20070;-75
2023/05/15 05:53:53;;;;;;;6.47;2.72;;;12.10;99.90;;;;;;4958686;28;20560;-73
2023/05/15 05:56:20;;;;;;;9.80;2.50;;;12.30;99.90;;;;;;4960239;28;20042;-81
2023/05/15 05:58:46;;;;;;;5.45;2.47;;;12.40;99.90;;;;;;4952373;28;20031;-73
2023/05/15 06:01:12;;;;;;;5.03;2.75;;;12.50;99.90;;;;;;4976459;28;20513;-75
2023/05/15 06:03:38;;;;;;;5.43;2.72;;;12.70;99.90;;;;;;4978887;28;20386;-76
2023/05/15 06:06:04;;;;;;;3.80;2.40;;;12.80;99.90;;;;;;4962830;28;20039;-78
2023/05/15 06:08:30;;;;;;;9.27;3.53;;;12.70;99.90;;;;;;4959861;28;20031;-72
2023/05/15 06:10:56;;;;;;;6.50;2.83;;;12.60;99.90;;;;;;4961913;28;20038;-78
2023/05/15 06:13:22;;;;;;;4.15;2.78;;;12.70;99.90;;;;;;4964284;28;20097;-77
2023/05/15 06:15:48;;;;;;;6.57;2.97;;;12.80;99.90;;;;;;4982492;28;20027;-75
2023/05/15 06:18:13;;;;;;;5.97;3.15;;;12.90;99.90;;;;;;4973282;28;20042;-76
2023/05/15 06:20:41;;;;;;;4.10;2.60;;;13.10;99.90;;;;;;4973819;28;20109;-76
2023/05/15 06:23:07;;;;;;;5.85;3.08;;;13.10;99.90;;;;;;4981855;28;20046;-77
2023/05/15 06:25:33;;;;;;;4.68;2.70;;;13.20;99.90;;;;;;4973811;28;20386;-76
2023/05/15 06:27:59;;;;;;;4.40;2.30;;;13.40;99.90;;;;;;4989340;28;20031;-75
2023/05/15 06:30:25;;;;;;;4.90;2.78;;;13.70;99.90;;;;;;4971415;28;20042;-75
2023/05/15 06:32:52;;;;;;;3.83;2.35;;;13.80;99.90;;;;;;4989080;28;20118;-74
2023/05/15 06:35:18;;;;;;;5.13;2.33;;;14.00;99.90;;;;;;4969300;28;20125;-75
2023/05/15 06:37:48;;;;;;;4.80;2.30;;;14.30;99.90;;;;;;4968597;28;20487;-75
2023/05/15 06:40:15;;;;;;;5.90;3.00;;;14.50;99.90;;;;;;4970680;28;20035;-75
2023/05/15 06:42:40;;;;;;;5.68;2.63;;;14.60;99.90;;;;;;4969649;28;20035;-75
2023/05/15 06:45:07;;;;;;;2.53;1.70;;;14.80;99.90;;;;;;4970215;28;20456;-75
2023/05/15 06:47:33;;;;;;;4.55;1.88;;;15.00;99.90;;;;;;4970936;28;20514;-75
2023/05/15 06:49:59;;;;;;;8.13;3.40;;;15.20;99.90;;;;;;4971100;28;20030;-76
2023/05/15 06:52:24;;;;;;;6.22;2.13;;;15.20;99.90;;;;;;4964561;28;20391;-75
2023/05/15 06:54:50;;;;;;;2.70;1.65;;;15.40;99.90;;;;;;4959054;28;20086;-75
2023/05/15 06:57:17;;;;;;;7.00;2.03;;;15.50;99.90;;;;;;4968735;28;20480;-76
2023/05/15 06:59:43;;;;;;;10.52;2.03;;;15.60;99.90;;;;;;4965055;28;20031;-76
2023/05/15 07:02:09;;;;;;;2.72;1.67;;;15.60;99.90;;;;;;4972595;28;20086;-75
2023/05/15 07:04:35;;;;;;;4.00;1.75;;;15.50;99.90;;;;;;4961117;28;20558;-74
2023/05/15 07:07:01;;;;;;;6.57;2.47;;;15.60;99.90;;;;;;4967298;28;20063;-75
2023/05/15 07:09:27;;;;;;;7.15;2.35;;;15.80;99.90;;;;;;4963958;28;20031;-75
2023/05/15 07:11:52;;;;;;;4.05;2.30;;;15.60;99.90;;;;;;4973438;28;20042;-75
2023/05/15 07:14:18;;;;;;;4.20;1.73;;;15.70;99.90;;;;;;4955343;28;20039;-75
2023/05/15 07:16:45;;;;;;;2.63;1.70;;;15.80;99.90;;;;;;4964521;28;20038;-75
2023/05/15 07:19:11;;;;;;;3.85;2.08;;;16.00;99.90;;;;;;4964843;28;20030;-75
2023/05/15 07:21:38;;;;;;;3.38;1.75;;;16.20;99.90;;;;;;4972844;28;20038;-75
2023/05/15 07:24:04;;;;;;;4.63;2.30;;;16.30;99.90;;;;;;4963674;28;20030;-75
2023/05/15 07:26:31;;;;;;;6.60;2.42;;;16.40;99.90;;;;;;4972355;28;20031;-75
2023/05/15 07:28:57;;;;;;;3.42;1.90;;;16.30;99.90;;;;;;4964940;28;20050;-75
2023/05/15 07:31:23;;;;;;;5.47;1.98;;;16.20;99.90;;;;;;4972778;28;20530;-75
2023/05/15 07:33:49;;;;;;;5.65;2.00;;;16.30;99.90;;;;;;4963502;28;20043;-76
2023/05/15 07:36:15;;;;;;;3.80;1.77;;;16.50;99.90;;;;;;4972378;28;20323;-76
2023/05/15 07:38:41;;;;;;;3.35;1.77;;;16.10;99.90;;;;;;4964561;28;20251;-76
2023/05/15 07:41:07;;;;;;;2.72;1.63;;;16.40;99.90;;;;;;4972640;28;20031;-76
2023/05/15 07:43:33;;;;;;;3.17;2.05;;;16.50;99.90;;;;;;4964712;28;20042;-76
2023/05/15 07:45:59;;;;;;;4.82;1.67;;;16.60;99.90;;;;;;4972509;28;20038;-77
2023/05/15 07:48:25;;;;;;;4.03;1.85;;;16.80;99.90;;;;;;4964782;28;20034;-77
2023/05/15 07:50:51;;;;;;;4.47;1.80;;;16.80;99.90;;;;;;4972369;28;20038;-76
2023/05/15 07:53:16;;;;;;;2.70;1.38;;;16.90;99.90;;;;;;4964556;28;20046;-76
2023/05/15 07:55:43;;;;;;;3.72;1.85;;;16.90;99.90;;;;;;4971968;28;20421;-76
2023/05/15 07:58:09;;;;;;;3.35;2.13;;;17.00;99.90;;;;;;4963656;28;20031;-76
2023/05/15 08:00:36;;;;;;;4.85;2.00;;;17.00;99.90;;;;;;4971622;28;20035;-77
2023/05/15 08:03:01;;;;;;;2.72;1.70;;;17.20;99.90;;;;;;4964637;28;20062;-76
2023/05/15 08:05:28;;;;;;;4.38;1.63;;;17.30;99.90;;;;;;4970917;28;20050;-76
2023/05/15 08:07:57;;;;;;;3.40;1.65;;;17.30;99.90;;;;;;4966682;28;20030;-76
2023/05/15 08:10:23;;;;;;;2.72;1.35;;;17.40;99.90;;;;;;4954986;28;20039;-76
2023/05/15 08:12:49;;;;;;;3.97;1.95;;;17.30;99.90;;;;;;4967051;28;20035;-77
2023/05/15 08:15:15;;;;;;;4.03;1.75;;;17.20;99.90;;;;;;4969840;28;20375;-76
2023/05/15 08:17:41;;;;;;;3.50;1.92;;;17.20;99.90;;;;;;4967221;28;20067;-77
2023/05/15 08:20:07;;;;;;;5.32;2.50;;;17.20;99.90;;;;;;4966874;28;20535;-77
2023/05/15 08:22:33;;;;;;;4.72;2.30;;;17.00;99.90;;;;;;4964532;28;20042;-76
2023/05/15 08:24:59;;;;;;;7.82;2.30;;;17.10;99.90;;;;;;4970765;28;20035;-77
2023/05/15 08:27:26;;;;;;;4.57;2.30;;;17.30;99.90;;;;;;4963226;28;20038;-76
2023/05/15 08:29:53;;;;;;;4.00;2.25;;;17.30;99.90;;;;;;4941405;29;20027;-76
2023/05/15 08:32:19;;;;;;;7.55;2.20;;;17.10;99.90;;;;;;4967015;28;20069;-76
2023/05/15 08:34:45;;;;;;;3.65;2.13;;;17.20;99.90;;;;;;4965205;28;20714;-76
2023/05/15 08:37:10;;;;;;;4.63;2.40;;;17.30;99.90;;;;;;4960033;28;20041;-76
2023/05/15 08:39:36;;;;;;;7.80;2.90;;;17.60;99.90;;;;;;4969618;28;20027;-76
2023/05/15 08:42:14;;;;;;;6.10;2.63;;;17.60;99.90;;;;;;4944810;29;20042;-76
2023/05/15 08:44:40;;;;;;;5.88;2.80;;;17.70;99.90;;;;;;4974537;28;20024;-77
2023/05/15 08:47:06;;;;;;;7.60;2.45;;;17.70;99.90;;;;;;4965821;28;20499;-77
2023/05/15 08:50:03;;;;;;;3.90;2.35;;;17.60;99.90;;;;;;4972218;28;20031;-76
2023/05/15 08:52:31;;;;;;;4.82;2.47;;;17.70;99.90;;;;;;4942303;28;20047;-77
2023/05/15 08:55:01;;;;;;;5.75;2.75;;;18.00;99.90;;;;;;4956014;28;20035;-76
2023/05/15 08:57:28;;;;;;;5.38;2.35;;;18.20;99.90;;;;;;4967363;28;20503;-76
2023/05/15 08:59:55;;;;;;;4.18;2.30;;;18.20;99.90;;;;;;4956317;28;20683;-79
2023/05/15 09:02:21;;;;;;;7.28;2.78;;;18.30;99.90;;;;;;4959082;28;20073;-77
2023/05/15 09:04:47;;;;;;;6.05;3.15;;;18.30;99.90;;;;;;4963144;28;20122;-77
2023/05/15 09:07:15;;;;;;;11.07;3.80;;;18.30;99.90;;;;;;4985547;28;20117;-77
2023/05/15 09:09:43;;;;;;;5.97;3.20;;;18.40;99.90;;;;;;4959070;28;20023;-77
2023/05/15 09:12:13;;;;;;;6.10;2.83;;;18.60;99.90;;;;;;4955690;28;20054;-77
2023/05/15 09:14:38;;;;;;;7.18;4.13;;;18.80;99.90;;;;;;4985761;28;20042;-77
2023/05/15 09:17:04;;;;;;;6.68;3.45;;;18.70;99.90;;;;;;4969359;28;20093;-77
2023/05/15 09:19:33;;;;;;;7.03;3.30;;;18.50;99.90;;;;;;4974818;23;20078;-78
2023/05/15 09:22:24;;;;;;;8.27;4.03;;;18.80;99.90;;;;;;4986120;28;20410;-78
2023/05/15 09:24:56;;;;;;;9.45;3.97;;;18.80;99.90;;;;;;4969368;28;20023;-78
2023/05/15 09:27:23;;;;;;;8.52;3.75;;;19.00;99.90;;;;;;4964480;28;20154;-78
2023/05/15 09:29:53;;;;;;;6.05;3.45;;;19.20;99.90;;;;;;4965607;28;20053;-78
2023/05/15 09:32:19;;;;;;;16.45;3.35;;;19.40;99.90;;;;;;4966555;28;20380;-78
2023/05/15 09:34:45;;;;;;;10.23;5.43;;;19.40;99.90;;;;;;4959236;28;20031;-78
2023/05/15 09:37:32;;;;;;;14.93;5.18;;;19.30;99.90;;;;;;4970146;28;20027;-78
2023/05/15 09:40:09;;;;;;;9.80;4.18;;;19.40;99.90;;;;;;4956932;28;20518;-78
2023/05/15 09:42:36;;;;;;;7.78;3.05;;;19.60;99.90;;;;;;4962555;28;20053;-79
2023/05/15 09:45:02;;;;;;;7.93;3.30;;;19.80;99.90;;;;;;4947135;28;20503;-78
2023/05/15 09:47:28;;;;;;;14.93;4.07;;;20.00;99.90;;;;;;4961194;28;20035;-77
2023/05/15 09:49:53;;;;;;;11.73;4.07;;;20.00;99.90;;;;;;4961348;28;20045;-76
2023/05/15 09:52:20;;;;;;;7.07;3.45;;;20.10;99.90;;;;;;4965659;28;20043;-77
2023/05/15 09:54:48;;;;;;;8.65;4.35;;;20.00;99.90;;;;;;4968135;28;20034;-75
2023/05/15 09:57:14;;;;;;;12.10;5.25;;;19.70;99.90;;;;;;4966372;28;20113;-77
2023/05/15 09:59:47;;;;;;;11.65;4.95;;;20.00;99.90;;;;;;4967791;28;20121;-70
2023/05/15 10:02:31;;;;;;;15.38;5.60;;;20.20;99.90;;;;;;4966254;28;20041;-75
2023/05/15 10:04:57;;;;;;;12.70;5.93;;;20.20;99.90;;;;;;4967953;28;20026;-74
2023/05/15 10:07:31;;;;;;;15.82;5.88;;;20.10;99.90;;;;;;4966422;28;20027;-75
2023/05/15 10:09:58;;;;;;;10.90;5.25;;;20.50;99.90;;;;;;4967546;28;20022;-73
2023/05/15 10:12:25;;;;;;;12.52;5.75;;;20.60;99.90;;;;;;4966355;28;20375;-74
2023/05/15 10:14:55;;;;;;;16.55;6.43;;;21.00;99.90;;;;;;4967334;28;20031;-76
2023/05/15 10:17:22;;;;;;;19.97;6.17;;;21.20;99.90;;;;;;4965109;28;20402;-75
2023/05/15 10:19:50;;;;;;;14.00;5.47;;;21.30;99.90;;;;;;4966050;28;20042;-75
2023/05/15 10:22:25;;;;;;;11.50;5.50;;;21.70;99.90;;;;;;4966259;28;20110;-75
2023/05/15 10:25:09;;;;;;;9.77;4.88;;;20.80;99.30;;;;;;4966556;28;20035;-75
2023/05/15 10:27:37;;;;;;;9.35;4.35;;;21.10;99.90;;;;;;4965050;28;20452;-73
2023/05/15 10:30:04;;;;;;;16.48;4.25;;;21.50;97.50;;;;;;4966995;28;20035;-75
2023/05/15 10:32:31;;;;;;;9.38;3.58;;;21.50;96.00;;;;;;4965956;28;20121;-75
2023/05/15 10:34:57;;;;;;;13.07;4.78;;;21.50;97.10;;;;;;4960517;28;20050;-77
2023/05/15 10:37:23;;;;;;;7.57;3.72;;;21.60;96.20;;;;;;4977898;28;20467;-78
2023/05/15 10:39:54;;;;;;;12.13;4.35;;;21.70;95.80;;;;;;4958396;28;20027;-77
2023/05/15 10:42:21;;;;;;;;;;;21.80;96.10;;;;;;4985271;28;20043;-73
2023/05/15 10:44:49;;;;;;;7.38;3.92;;;21.90;95.50;;;;;;4981792;28;19992;-73
2023/05/15 10:47:15;;;;;;;8.23;3.55;;;22.00;94.20;;;;;;4966083;28;20074;-78
2023/05/15 10:49:41;;;;;;;12.52;3.92;;;22.30;92.70;;;;;;4970575;28;20062;-72
2023/05/15 10:52:08;;;;;;;7.45;3.60;;;22.40;93.80;;;;;;4972555;28;20533;-72
2023/05/15 10:54:34;;;;;;;6.90;2.95;;;22.40;91.40;;;;;;4966915;28;20057;-76
2023/05/15 10:57:00;;;;;;;8.43;3.72;;;22.70;92.10;;;;;;4964253;28;20109;-74
2023/05/15 10:59:33;;;;;;;5.80;2.70;;;22.90;91.80;;;;;;4964393;28;20126;-71
2023/05/15 11:02:37;;;;;;;5.68;2.67;;;22.90;91.30;;;;;;4964477;28;20069;-73
2023/05/15 11:05:04;;;;;;;4.53;2.20;;;23.30;86.90;;;;;;4936777;28;20387;-74
2023/05/15 11:07:29;;;;;;;5.13;2.90;;;23.00;85.80;;;;;;4964516;28;20375;-73
2023/05/15 11:09:56;;;;;;;4.93;2.78;;;23.60;84.90;;;;;;4966399;28;20110;-74
2023/05/15 11:12:23;;;;;;;6.60;2.22;;;23.60;81.70;;;;;;4956316;28;20050;-74
2023/05/15 11:14:55;;;;;;;6.38;3.47;;;23.30;81.70;;;;;;4967323;28;20042;-74
2023/05/15 11:17:24;;;;;;;7.32;3.13;;;23.30;86.60;;;;;;4967343;28;20499;-76
2023/05/15 11:19:50;;;;;;;8.05;2.88;;;23.10;88.10;;;;;;4966001;28;20487;-74
2023/05/15 11:22:37;;;;;;;6.70;3.03;;;22.70;88.30;;;;;;4965191;28;20034;-74
2023/05/15 11:25:13;;;;;;;6.63;3.13;;;22.50;90.00;;;;;;4966430;28;20031;-74
2023/05/15 11:27:44;;;;;;;5.45;2.67;;;22.30;90.60;;;;;;4971732;28;20027;-74
2023/05/15 11:30:21;;;;;;;8.15;2.83;;;22.30;89.00;;;;;;4966040;28;20038;-74
2023/05/15 11:32:54;;;;;;;6.13;2.80;;;22.70;89.40;;;;;;4962143;28;20046;-75
2023/05/15 11:35:34;;;;;;;5.70;2.70;;;23.10;85.90;;;;;;4962874;28;20043;-74
2023/05/15 11:38:18;;;;;;;4.40;2.20;;;23.10;86.00;;;;;;4968472;28;20031;-74
2023/05/15 11:40:46;;;;;;;4.20;2.03;;;23.10;85.60;;;;;;4960652;28;20580;-75
2023/05/15 11:43:23;;;;;;;5.15;2.13;;;23.50;80.30;;;;;;4968711;28;20497;-74
2023/05/15 11:46:03;;;;;;;2.53;1.73;;;23.70;76.70;;;;;;4961453;28;20439;-74
2023/05/15 11:48:33;;;;;;;4.03;1.98;;;23.70;74.30;;;;;;4970630;28;20110;-73
2023/05/15 11:51:03;;;;;;;3.35;1.80;;;23.30;74.70;;;;;;4961155;28;20494;-74
2023/05/15 11:53:30;;;;;;;3.03;1.92;;;23.40;74.70;;;;;;4969862;28;20038;-74
2023/05/15 11:55:56;;;;;;;4.07;2.25;;;23.50;74.60;;;;;;4944054;29;20508;-74
2023/05/15 11:58:23;;;;;;;7.57;3.22;;;23.80;76.30;;;;;;4970088;28;20082;-73
2023/05/15 12:00:52;;;;;;;4.28;2.60;;;24.10;78.80;;;;;;4960938;28;20038;-74
2023/05/15 12:03:32;;;;;;;5.85;2.75;;;24.20;74.70;;;;;;4968610;28;20027;-74
2023/05/15 12:06:00;;;;;;;6.43;3.83;;;24.00;77.80;;;;;;4956274;28;20057;-73
2023/05/15 12:08:40;;;;;;;4.65;1.90;;;24.20;75.50;;;;;;4958702;28;20117;-74
2023/05/15 12:11:07;;;;;;;5.80;1.75;;;24.30;72.30;;;;;;4963837;28;20035;-75
2023/05/15 12:13:33;;;;;;;3.50;2.28;;;24.50;71.20;;;;;;4962750;28;20615;-73
2023/05/15 12:16:03;;;;;;;6.90;3.40;;;24.30;74.40;;;;;;4968976;28;20039;-74
2023/05/15 12:18:33;;;;;;;5.70;2.42;;;24.20;75.70;;;;;;4962887;28;20035;-73
2023/05/15 12:20:59;;;;;;;5.47;2.47;;;24.50;73.60;;;;;;4970088;28;20117;-73
2023/05/15 12:23:27;;;;;;;4.63;2.42;;;24.70;72.00;;;;;;4977576;28;20070;-72
2023/05/15 12:25:58;;;;;;;5.35;2.13;;;24.80;70.80;;;;;;4985598;28;20054;-73
2023/05/15 12:28:25;;;;;;;6.57;2.30;;;24.60;70.20;;;;;;4960834;28;20125;-74
2023/05/15 12:30:52;;;;;;;4.15;2.40;;;24.50;70.10;;;;;;4971109;28;20196;-74
2023/05/15 12:33:18;;;;;;;6.22;2.72;;;24.50;70.50;;;;;;4976298;28;20030;-74
2023/05/15 12:35:53;;;;;;;5.43;2.50;;;24.50;74.10;;;;;;4971445;28;20031;-76
2023/05/15 12:38:21;;;;;;;6.25;2.53;;;24.50;72.20;;;;;;4962303;28;20039;-74
2023/05/15 12:40:52;;;;;;;5.40;2.78;;;24.20;73.10;;;;;;4969364;28;20027;-73
2023/05/15 12:43:18;;;;;;;6.97;3.20;;;23.90;75.20;;;;;;4962253;28;20114;-74
2023/05/15 12:45:43;;;;;;;7.68;3.42;;;23.60;77.80;;;;;;4970337;28;20114;-74
2023/05/15 12:48:18;;;;;;;6.93;3.22;;;23.00;80.20;;;;;;4963138;28;20054;-75
2023/05/15 12:50:44;;;;;;;3.70;2.60;;;22.50;82.40;;;;;;4966641;28;20031;-75